Time;durP1;ratioP1;P1;durP2;ratioP2;P2;SDS_P1;SDS_P2;PMS_P1;PMS_P2;Temp;Humidity;BMP_temperature;BMP_pressure;BME280_temperature;BME280_humidity;BME280_pressure;Samples;Min_cycle;Max_cycle;Signal;HPM_P1;HPM_P2
2022/04/19 00:00:58;;;;;;;2.85;1.50;;;8.50;78.60;;;;;;6221997;28;20058;-75
2022/04/19 00:04:00;;;;;;;3.83;1.63;;;8.40;78.70;;;;;;6222357;28;20056;-79
2022/04/19 00:07:02;;;;;;;2.45;1.15;;;8.40;79.40;;;;;;6221172;28;20050;-75
2022/04/19 00:10:07;;;;;;;3.35;1.52;;;8.40;79.50;;;;;;6220893;28;20058;-77
2022/04/19 00:13:10;;;;;;;6.53;2.35;;;8.30;79.50;;;;;;6221697;28;20574;-78
2022/04/19 00:16:14;;;;;;;2.92;1.52;;;8.30;80.10;;;;;;6222402;28;20054;-77
2022/04/19 00:19:15;;;;;;;4.22;1.63;;;8.30;79.80;;;;;;6221585;28;20124;-78
2022/04/19 00:22:19;;;;;;;5.35;1.60;;;8.20;80.10;;;;;;6221764;28;20042;-78
2022/04/19 00:25:22;;;;;;;6.13;1.35;;;8.20;80.60;;;;;;6231689;28;20042;-74
2022/04/19 00:28:24;;;;;;;2.58;1.38;;;8.20;80.60;;;;;;6227051;28;20136;-79
2022/04/19 00:31:25;;;;;;;3.25;1.23;;;8.10;80.80;;;;;;6198638;28;20057;-76
2022/04/19 00:34:27;;;;;;;4.35;1.58;;;8.10;81.00;;;;;;6197259;28;20065;-78
2022/04/19 00:37:29;;;;;;;5.35;1.75;;;8.00;81.10;;;;;;6197164;28;20053;-79
2022/04/19 00:40:32;;;;;;;4.25;1.73;;;7.90;81.10;;;;;;6196933;28;20050;-79
2022/04/19 00:43:34;;;;;;;4.00;2.08;;;7.80;81.50;;;;;;6208570;28;20042;-76
2022/04/19 00:46:35;;;;;;;3.85;1.88;;;7.80;82.10;;;;;;6205438;28;20058;-79
2022/04/19 00:49:39;;;;;;;3.10;1.20;;;7.70;82.20;;;;;;6197296;28;20069;-79
2022/04/19 00:52:43;;;;;;;2.22;1.48;;;7.70;82.30;;;;;;6197399;28;20225;-77
2022/04/19 00:55:47;;;;;;;3.08;1.90;;;7.70;82.40;;;;;;6196694;28;20177;-79
2022/04/19 00:58:48;;;;;;;3.50;1.70;;;7.60;82.60;;;;;;6197650;28;20501;-78
2022/04/19 01:01:50;;;;;;;3.20;1.63;;;7.60;82.80;;;;;;6198349;28;20038;-78
2022/04/19 01:04:55;;;;;;;6.57;2.08;;;7.50;83.50;;;;;;6198172;28;20053;-79
2022/04/19 01:07:57;;;;;;;3.42;1.63;;;7.50;83.80;;;;;;6197006;28;20046;-78
2022/04/19 01:14:15;;;;;;;5.65;1.88;;;7.40;84.10;;;;;;6164754;28;20459;-79
2022/04/19 01:17:18;;;;;;;4.07;2.38;;;7.30;84.70;;;;;;6200366;28;20512;-78
2022/04/19 01:20:19;;;;;;;3.20;1.38;;;7.30;84.80;;;;;;6201622;28;20050;-77
2022/04/19 01:23:23;;;;;;;6.13;1.75;;;7.20;84.60;;;;;;6200535;28;20115;-77
2022/04/19 01:26:24;;;;;;;5.35;2.08;;;7.20;84.70;;;;;;6200961;28;20042;-77
2022/04/19 01:29:27;;;;;;;3.40;2.00;;;7.10;85.30;;;;;;6200600;28;20122;-77
2022/04/19 01:32:28;;;;;;;3.75;2.03;;;7.00;85.90;;;;;;6201173;28;20133;-77
2022/04/19 01:35:30;;;;;;;5.95;1.88;;;7.00;87.10;;;;;;6200498;28;20050;-77
2022/04/19 01:38:33;;;;;;;4.70;2.03;;;6.90;86.80;;;;;;6200021;28;20042;-77
2022/04/19 01:41:36;;;;;;;4.63;2.47;;;6.80;87.00;;;;;;6200664;28;20050;-77
2022/04/19 01:44:38;;;;;;;7.80;2.15;;;6.80;87.00;;;;;;6209037;28;20057;-77
2022/04/19 01:47:40;;;;;;;4.15;1.88;;;6.70;87.50;;;;;;6221647;28;20407;-78
2022/04/19 01:50:42;;;;;;;6.00;2.42;;;6.60;88.30;;;;;;6227343;28;20049;-79
2022/04/19 01:53:46;;;;;;;2.97;1.95;;;6.60;89.00;;;;;;6228485;28;20046;-79
2022/04/19 01:56:48;;;;;;;2.95;1.63;;;6.50;88.70;;;;;;6228763;28;20046;-78
2022/04/19 01:59:49;;;;;;;4.97;1.65;;;6.40;89.10;;;;;;6224796;28;20184;-78
2022/04/19 02:02:51;;;;;;;5.93;2.25;;;6.40;89.40;;;;;;6224927;28;20046;-79
2022/04/19 02:05:53;;;;;;;2.47;1.83;;;6.30;89.50;;;;;;6226000;28;20038;-78
2022/04/19 02:08:56;;;;;;;4.13;1.73;;;6.30;89.80;;;;;;6227020;28;20479;-78
2022/04/19 02:11:57;;;;;;;4.30;2.22;;;6.30;89.80;;;;;;6227096;28;20056;-78
2022/04/19 02:14:59;;;;;;;4.68;2.40;;;6.20;89.30;;;;;;6228153;28;20050;-78
2022/04/19 02:18:01;;;;;;;2.83;2.03;;;6.20;89.70;;;;;;6227824;28;20046;-78
2022/04/19 02:21:03;;;;;;;2.75;1.67;;;6.20;89.50;;;;;;6226374;28;20133;-78
2022/04/19 02:24:07;;;;;;;3.80;1.80;;;6.10;89.50;;;;;;6227032;28;20052;-78
2022/04/19 02:27:08;;;;;;;3.85;1.75;;;6.00;90.00;;;;;;6226225;28;20052;-78
2022/04/19 02:30:14;;;;;;;2.65;1.67;;;5.90;89.80;;;;;;6224697;28;20415;-78
2022/04/19 02:33:16;;;;;;;4.25;1.80;;;5.90;89.90;;;;;;6225990;28;20050;-78
2022/04/19 02:36:18;;;;;;;4.07;2.30;;;5.90;89.90;;;;;;6226530;28;20494;-78
2022/04/19 02:39:21;;;;;;;4.85;2.38;;;5.80;89.80;;;;;;6224952;28;20046;-78
2022/04/19 02:42:23;;;;;;;3.90;1.98;;;5.80;90.30;;;;;;6225534;28;20081;-78
2022/04/19 02:45:25;;;;;;;3.97;2.22;;;5.70;90.20;;;;;;6224677;28;20046;-78
2022/04/19 02:48:28;;;;;;;3.38;1.98;;;5.70;90.20;;;;;;6206296;28;20065;-78
2022/04/19 02:51:29;;;;;;;4.45;2.58;;;5.70;90.20;;;;;;6201578;28;20129;-77
2022/04/19 02:54:33;;;;;;;6.90;2.22;;;5.60;90.20;;;;;;6201350;28;20053;-77
2022/04/19 02:57:34;;;;;;;3.72;2.40;;;5.60;90.20;;;;;;6201054;28;20129;-78
2022/04/19 03:00:36;;;;;;;4.13;2.78;;;5.50;90.60;;;;;;6201524;28;20133;-77
2022/04/19 03:03:38;;;;;;;3.20;1.77;;;5.50;90.60;;;;;;6201248;28;20424;-78
2022/04/19 03:06:41;;;;;;;5.65;2.08;;;5.40;90.60;;;;;;6201287;28;20125;-78
2022/04/19 03:09:44;;;;;;;4.88;1.92;;;5.30;90.50;;;;;;6200561;28;20042;-78
2022/04/19 03:12:46;;;;;;;5.43;1.95;;;5.20;90.70;;;;;;6200894;28;20489;-78
2022/04/19 03:15:48;;;;;;;8.43;2.80;;;5.20;90.90;;;;;;6202124;28;20488;-78
2022/04/19 03:18:50;;;;;;;5.55;2.55;;;5.20;91.00;;;;;;6220443;28;20411;-78
2022/04/19 03:21:52;;;;;;;3.10;1.90;;;5.20;91.00;;;;;;6222234;28;20042;-78
2022/04/19 03:28:15;;;;;;;4.63;2.65;;;5.20;90.80;;;;;;6225825;28;20050;-78
2022/04/19 03:31:16;;;;;;;6.40;2.13;;;5.20;90.70;;;;;;6225023;28;20524;-78
2022/04/19 03:34:18;;;;;;;2.95;1.90;;;5.10;90.70;;;;;;6224709;28;20053;-77
2022/04/19 03:37:20;;;;;;;3.63;1.88;;;5.10;90.70;;;;;;6226600;28;20042;-78
2022/04/19 03:40:24;;;;;;;4.68;2.22;;;5.10;90.70;;;;;;6225796;28;20054;-78
2022/04/19 03:43:26;;;;;;;5.80;2.10;;;5.10;90.80;;;;;;6225135;28;20058;-77
2022/04/19 03:46:28;;;;;;;8.27;2.50;;;5.10;90.70;;;;;;6219829;28;20048;-78
2022/04/19 03:49:29;;;;;;;5.28;2.70;;;5.10;90.80;;;;;;6201824;28;20527;-78
2022/04/19 03:52:32;;;;;;;5.82;2.50;;;5.10;90.80;;;;;;6200098;28;20050;-78
2022/04/19 03:55:35;;;;;;;3.13;1.73;;;5.00;90.80;;;;;;6198810;28;20496;-78
2022/04/19 03:58:39;;;;;;;9.18;2.60;;;5.00;91.10;;;;;;6200243;28;20189;-78
2022/04/19 04:01:40;;;;;;;3.28;2.05;;;5.00;91.10;;;;;;6200829;28;20046;-77
2022/04/19 04:04:42;;;;;;;3.83;2.30;;;4.90;91.20;;;;;;6199885;28;20042;-78
2022/04/19 04:07:44;;;;;;;2.97;1.65;;;4.90;91.30;;;;;;6199411;28;20161;-78
2022/04/19 04:10:47;;;;;;;4.55;2.00;;;4.90;91.50;;;;;;6199164;28;20050;-78
2022/04/19 04:13:49;;;;;;;5.30;1.98;;;4.90;91.50;;;;;;6200387;28;20042;-78
2022/04/19 04:16:51;;;;;;;7.13;3.28;;;4.80;91.50;;;;;;6200269;28;20054;-78
2022/04/19 04:19:52;;;;;;;4.20;2.17;;;4.80;91.50;;;;;;6199054;28;20173;-78
2022/04/19 04:22:54;;;;;;;6.93;2.65;;;4.70;91.20;;;;;;6199339;28;20160;-77
2022/04/19 04:25:57;;;;;;;8.13;2.92;;;4.70;91.30;;;;;;6200296;28;20052;-78
2022/04/19 04:28:59;;;;;;;5.70;2.60;;;4.60;91.40;;;;;;6199846;28;20141;-78
2022/04/19 04:32:01;;;;;;;5.57;3.55;;;4.60;91.50;;;;;;6199955;28;20054;-78
2022/04/19 04:35:02;;;;;;;4.22;2.70;;;4.70;91.40;;;;;;6199629;28;20046;-79
2022/04/19 04:38:04;;;;;;;4.72;3.00;;;4.70;91.50;;;;;;6200108;28;20137;-78
2022/04/19 04:41:08;;;;;;;4.82;2.33;;;4.70;91.50;;;;;;6200698;28;20054;-78
2022/04/19 04:44:09;;;;;;;6.63;2.22;;;4.70;91.40;;;;;;6200907;28;20047;-78
2022/04/19 04:50:33;;;;;;;4.80;2.40;;;4.60;91.40;;;;;;6221465;28;20128;-78
2022/04/19 04:53:34;;;;;;;5.15;2.45;;;4.70;91.50;;;;;;6229464;28;20168;-78
2022/04/19 04:56:38;;;;;;;6.15;2.20;;;4.70;91.50;;;;;;6229606;28;20045;-78
2022/04/19 04:59:39;;;;;;;9.88;3.05;;;4.70;91.60;;;;;;6228747;28;20057;-78
2022/04/19 05:02:41;;;;;;;3.83;2.25;;;4.80;91.50;;;;;;6202150;28;20133;-78
2022/04/19 05:05:43;;;;;;;4.20;2.58;;;4.80;91.20;;;;;;6226053;28;20127;-77
2022/04/19 05:08:45;;;;;;;6.82;2.88;;;4.90;91.00;;;;;;6231829;28;20472;-78
2022/04/19 05:11:50;;;;;;;7.38;2.75;;;5.00;91.20;;;;;;6219741;28;20129;-77
2022/04/19 05:14:52;;;;;;;3.88;2.42;;;5.20;91.10;;;;;;6224558;28;20125;-77
2022/04/19 05:17:53;;;;;;;5.95;2.70;;;5.30;90.90;;;;;;6212869;28;20686;-78
2022/04/19 05:20:55;;;;;;;5.07;2.72;;;5.40;90.70;;;;;;6221043;28;20050;-77
2022/04/19 05:23:57;;;;;;;12.15;3.20;;;5.50;90.70;;;;;;6226008;28;20041;-77
2022/04/19 05:27:00;;;;;;;3.47;2.08;;;5.60;90.50;;;;;;6225765;28;20052;-77
2022/04/19 05:30:02;;;;;;;16.90;2.70;;;5.70;90.70;;;;;;6225334;28;20428;-77
2022/04/19 05:33:04;;;;;;;8.50;2.10;;;5.80;90.40;;;;;;6229364;28;20049;-78
2022/04/19 05:36:06;;;;;;;7.13;3.90;;;6.10;90.20;;;;;;6223831;28;20124;-78
2022/04/19 05:39:08;;;;;;;6.00;3.20;;;6.40;90.00;;;;;;6226103;28;20046;-78
2022/04/19 05:42:12;;;;;;;6.03;3.05;;;6.60;89.30;;;;;;6227622;28;20049;-78
2022/04/19 05:45:14;;;;;;;7.97;3.00;;;7.00;88.50;;;;;;6227719;28;20045;-78
2022/04/19 05:48:15;;;;;;;12.20;2.80;;;7.50;87.90;;;;;;6224563;28;20419;-78
2022/04/19 05:51:17;;;;;;;10.82;3.30;;;8.70;86.10;;;;;;6208559;28;20142;-78
2022/04/19 05:54:19;;;;;;;8.93;4.13;;;10.30;81.10;;;;;;6204724;28;20042;-79
2022/04/19 05:57:22;;;;;;;11.85;3.10;;;12.50;75.80;;;;;;6204695;28;20044;-79
2022/04/19 06:00:24;;;;;;;15.40;3.00;;;14.40;69.90;;;;;;6205011;28;20153;-79
2022/04/19 06:06:45;;;;;;;8.82;3.15;;;15.50;64.30;;;;;;6221270;28;20054;-78
2022/04/19 06:09:47;;;;;;;20.17;3.30;;;15.20;64.30;;;;;;6228565;28;20038;-79
2022/04/19 06:12:50;;;;;;;7.07;2.70;;;15.10;64.40;;;;;;6229311;28;20049;-79
2022/04/19 06:15:52;;;;;;;10.15;2.42;;;15.20;63.40;;;;;;6228631;28;20045;-78
2022/04/19 06:18:54;;;;;;;10.48;2.67;;;15.20;62.60;;;;;;6228339;28;20042;-78
2022/04/19 06:21:56;;;;;;;7.82;2.50;;;15.30;62.50;;;;;;6228075;28;20044;-78
2022/04/19 06:24:58;;;;;;;10.07;3.10;;;15.70;61.20;;;;;;6228949;28;20042;-78
2022/04/19 06:28:01;;;;;;;4.43;2.17;;;16.40;59.60;;;;;;6242642;28;20053;-79
2022/04/19 06:31:03;;;;;;;5.03;3.08;;;17.40;56.50;;;;;;6228316;28;20104;-79
2022/04/19 06:34:05;;;;;;;10.45;3.40;;;18.60;53.60;;;;;;6227483;28;20046;-79
2022/04/19 06:37:07;;;;;;;5.60;2.28;;;19.80;49.50;;;;;;6219195;28;20046;-79
2022/04/19 06:40:10;;;;;;;4.72;2.50;;;20.30;46.70;;;;;;6231951;28;20056;-79
2022/04/19 06:43:13;;;;;;;3.38;1.75;;;20.50;46.20;;;;;;6236663;28;20514;-79
2022/04/19 06:46:15;;;;;;;6.15;2.35;;;21.00;45.00;;;;;;6228512;28;20052;-80
2022/04/19 06:49:17;;;;;;;5.97;1.92;;;21.40;43.20;;;;;;6226542;28;20042;-79
2022/04/19 06:52:18;;;;;;;4.15;1.90;;;21.90;42.30;;;;;;6225176;28;20085;-77
2022/04/19 06:55:20;;;;;;;4.63;2.65;;;22.40;41.20;;;;;;6223647;28;20416;-78
2022/04/19 06:58:24;;;;;;;4.03;1.75;;;23.00;40.20;;;;;;6224159;28;20045;-78
2022/04/19 07:01:26;;;;;;;5.10;2.03;;;23.40;39.40;;;;;;6224970;28;20120;-79
2022/04/19 07:04:27;;;;;;;3.30;1.83;;;23.60;38.80;;;;;;6224463;28;20539;-78
2022/04/19 07:07:29;;;;;;;3.50;1.90;;;23.60;38.20;;;;;;6224072;28;20046;-78
2022/04/19 07:10:31;;;;;;;5.60;1.80;;;23.50;37.90;;;;;;6223651;28;20076;-77
2022/04/19 07:13:34;;;;;;;2.72;2.05;;;23.40;38.10;;;;;;6223441;28;20408;-78
2022/04/19 07:16:36;;;;;;;6.10;2.20;;;23.40;38.30;;;;;;6224288;28;20056;-77
2022/04/19 07:29:36;;;;;;;3.05;2.00;;;25.30;34.60;;;;;;6224842;28;20038;-79
2022/04/19 07:32:37;;;;;;;5.07;2.33;;;26.30;33.20;;;;;;6225991;28;20057;-79
2022/04/19 07:35:40;;;;;;;7.95;2.55;;;27.40;32.00;;;;;;6219101;28;20070;-78
2022/04/19 07:38:42;;;;;;;7.70;2.42;;;28.50;30.70;;;;;;6202991;28;20129;-81
2022/04/19 07:41:45;;;;;;;6.45;3.35;;;29.30;30.00;;;;;;6204615;28;20042;-78
2022/04/19 07:44:49;;;;;;;6.57;2.17;;;30.00;29.50;;;;;;6205998;28;20106;-80
2022/04/19 07:47:51;;;;;;;9.20;3.38;;;30.50;28.90;;;;;;6205377;28;20053;-81
2022/04/19 07:50:53;;;;;;;7.43;2.10;;;31.10;28.50;;;;;;6213098;28;20141;-78
2022/04/19 07:53:54;;;;;;;3.28;2.13;;;31.70;28.10;;;;;;6227404;28;20048;-78
2022/04/19 07:56:56;;;;;;;9.68;2.75;;;32.20;27.80;;;;;;6230007;28;20148;-78
2022/04/19 08:00:00;;;;;;;8.02;2.35;;;32.60;27.30;;;;;;6229603;28;20053;-79
2022/04/19 08:03:01;;;;;;;5.78;2.63;;;33.00;27.10;;;;;;6229291;28;20053;-78
2022/04/19 08:06:03;;;;;;;9.95;2.97;;;33.30;26.90;;;;;;6229104;28;20045;-78
2022/04/19 08:09:06;;;;;;;7.82;2.83;;;33.60;26.50;;;;;;6228613;28;20104;-79
2022/04/19 08:12:09;;;;;;;6.95;3.38;;;33.60;26.30;;;;;;6228920;28;20591;-78
2022/04/19 08:15:13;;;;;;;4.90;2.25;;;33.80;26.00;;;;;;6229004;28;20042;-79
2022/04/19 08:18:15;;;;;;;8.38;2.75;;;34.00;26.20;;;;;;6229397;28;20057;-78
2022/04/19 08:21:17;;;;;;;4.43;1.85;;;34.30;25.90;;;;;;6229141;28;20077;-79
2022/04/19 08:24:19;;;;;;;6.07;2.42;;;34.60;25.70;;;;;;6229386;28;20050;-78
2022/04/19 08:27:21;;;;;;;5.00;1.92;;;34.90;25.60;;;;;;6231648;28;20417;-78
2022/04/19 08:30:24;;;;;;;9.15;2.15;;;35.20;25.40;;;;;;6228986;28;20468;-78
2022/04/19 08:33:26;;;;;;;7.20;2.10;;;35.10;25.10;;;;;;6233552;28;20106;-78
2022/04/19 08:36:28;;;;;;;8.07;2.40;;;35.20;25.20;;;;;;6235206;28;20511;-80
2022/04/19 08:39:29;;;;;;;7.35;2.20;;;35.40;25.20;;;;;;6232972;28;20042;-78
2022/04/19 08:42:32;;;;;;;5.35;2.08;;;35.60;25.10;;;;;;6233754;28;20418;-78
2022/04/19 08:45:35;;;;;;;8.40;2.15;;;35.80;24.80;;;;;;6232731;28;20046;-79
2022/04/19 08:48:38;;;;;;;4.30;1.88;;;35.80;24.70;;;;;;6232431;28;20050;-77
2022/04/19 08:51:41;;;;;;;5.35;2.08;;;35.60;24.70;;;;;;6224443;28;20077;-78
2022/04/19 08:58:05;;;;;;;11.07;2.28;;;35.50;24.70;;;;;;6232869;28;20423;-78
2022/04/19 09:01:08;;;;;;;8.02;1.95;;;35.50;24.40;;;;;;6232187;28;20049;-78
2022/04/19 09:04:11;;;;;;;3.30;1.45;;;35.50;24.40;;;;;;6231537;28;20056;-78
2022/04/19 09:07:12;;;;;;;3.47;1.23;;;35.60;24.30;;;;;;6232195;28;20045;-78
2022/04/19 09:10:16;;;;;;;3.03;1.58;;;35.60;24.00;;;;;;6232042;28;20057;-78
2022/04/19 09:13:23;;;;;;;4.90;1.70;;;35.50;24.20;;;;;;6233322;28;20496;-78
2022/04/19 09:16:27;;;;;;;4.30;1.50;;;35.60;24.10;;;;;;6233623;28;20049;-79
2022/04/19 09:19:29;;;;;;;3.47;1.77;;;35.70;23.80;;;;;;6232016;28;20056;-78
2022/04/19 09:22:31;;;;;;;6.30;1.73;;;35.90;23.80;;;;;;6232879;28;20522;-78
2022/04/19 09:25:33;;;;;;;5.63;1.63;;;35.90;23.90;;;;;;6232146;28;20042;-79
2022/04/19 09:28:35;;;;;;;5.40;1.60;;;36.00;23.70;;;;;;6231841;28;20060;-78
2022/04/19 09:31:38;;;;;;;3.63;1.27;;;36.10;23.40;;;;;;6232392;28;20060;-79
2022/04/19 09:34:47;;;;;;;2.33;1.13;;;36.00;23.00;;;;;;6232826;28;20062;-79
2022/04/19 09:37:49;;;;;;;2.67;1.60;;;36.00;23.20;;;;;;6231829;28;20045;-79
2022/04/19 09:40:51;;;;;;;3.25;1.33;;;36.00;23.30;;;;;;6232532;28;20488;-78
2022/04/19 09:44:05;;;;;;;3.80;1.73;;;35.90;23.50;;;;;;6232478;28;20046;-79
2022/04/19 09:47:10;;;;;;;4.22;1.65;;;36.00;23.20;;;;;;6232391;28;20046;-79
2022/04/19 09:50:13;;;;;;;2.13;1.08;;;35.60;23.60;;;;;;6231877;28;20625;-78
2022/04/19 09:53:18;;;;;;;5.38;1.63;;;35.30;23.40;;;;;;6224095;28;20046;-78
2022/04/19 09:56:21;;;;;;;3.13;1.55;;;34.40;23.60;;;;;;6233608;28;20496;-77
2022/04/19 09:59:27;;;;;;;4.32;1.38;;;33.30;23.80;;;;;;6232417;28;20053;-78
2022/04/19 10:09:10;;;;;;;2.78;1.60;;;29.80;25.60;;;;;;6232735;28;20057;-80
2022/04/19 10:12:11;;;;;;;7.72;1.85;;;29.10;25.90;;;;;;6233921;28;20054;-80
2022/04/19 10:15:14;;;;;;;5.80;1.90;;;28.60;26.30;;;;;;6232819;28;20119;-79
2022/04/19 10:18:17;;;;;;;4.82;1.73;;;28.40;26.70;;;;;;6237168;28;20050;-80
2022/04/19 10:21:21;;;;;;;3.60;1.67;;;28.40;26.60;;;;;;6241472;28;20129;-79
2022/04/19 10:24:23;;;;;;;6.10;2.10;;;28.30;26.20;;;;;;6237139;28;20081;-77
2022/04/19 10:27:31;;;;;;;5.75;2.10;;;28.10;26.00;;;;;;6238587;28;20042;-81
2022/04/19 10:30:33;;;;;;;3.20;1.80;;;28.00;26.00;;;;;;6237991;28;20112;-78
2022/04/19 10:33:48;;;;;;;6.50;2.55;;;28.10;25.70;;;;;;6237634;28;20052;-80
2022/04/19 10:36:54;;;;;;;5.03;2.17;;;28.10;25.50;;;;;;6229558;28;20081;-77
2022/04/19 10:40:06;;;;;;;3.53;2.10;;;28.10;25.40;;;;;;6233651;28;20073;-80
2022/04/19 10:43:14;;;;;;;4.60;1.73;;;28.10;25.30;;;;;;6234514;28;20050;-79
2022/04/19 10:46:20;;;;;;;6.82;1.65;;;28.10;25.60;;;;;;6231218;28;20038;-80
2022/04/19 10:49:24;;;;;;;4.95;2.10;;;28.30;25.50;;;;;;6235764;28;20052;-78
2022/04/19 10:52:53;;;;;;;4.45;1.45;;;28.40;25.20;;;;;;6220549;28;20707;-79
2022/04/19 10:56:01;;;;;;;6.85;1.75;;;28.40;25.10;;;;;;6238398;28;20111;-80
2022/04/19 10:59:21;;;;;;;4.03;1.42;;;28.50;25.50;;;;;;6239625;28;20057;-79
2022/04/19 11:02:56;;;;;;;3.15;1.20;;;28.60;25.30;;;;;;6241084;28;20110;-79
2022/04/19 11:06:01;;;;;;;1.70;1.13;;;28.70;24.70;;;;;;6243728;28;20042;-79
2022/04/19 11:09:15;;;;;;;2.30;1.05;;;28.80;25.00;;;;;;6249844;28;20061;-79
2022/04/19 11:12:18;;;;;;;3.03;1.20;;;28.70;24.70;;;;;;6252411;28;20049;-79
2022/04/19 11:15:36;;;;;;;4.50;1.13;;;28.80;24.80;;;;;;6250748;28;20038;-79
2022/04/19 11:18:57;;;;;;;2.00;1.13;;;29.00;25.20;;;;;;6249793;28;20060;-80
2022/04/19 11:22:01;;;;;;;2.83;1.00;;;29.20;24.70;;;;;;6243310;28;20041;-79
2022/04/19 11:25:05;;;;;;;3.05;1.10;;;29.30;24.40;;;;;;6238030;28;20050;-79
2022/04/19 11:28:28;;;;;;;3.78;1.27;;;29.40;24.00;;;;;;6233469;28;20520;-78
2022/04/19 11:31:30;;;;;;;3.70;1.10;;;29.50;24.00;;;;;;6236150;28;20073;-79
2022/04/19 11:34:32;;;;;;;1.90;1.13;;;29.50;24.00;;;;;;6236564;28;20050;-79
2022/04/19 11:37:35;;;;;;;3.83;1.30;;;29.50;24.20;;;;;;6232773;28;20057;-78
2022/04/19 11:47:28;;;;;;;2.13;1.20;;;29.60;23.50;;;;;;6211975;28;20045;-79
2022/04/19 11:50:31;;;;;;;5.90;1.50;;;29.60;23.10;;;;;;6233262;28;20081;-79
2022/04/19 11:53:35;;;;;;;4.20;1.10;;;29.60;23.00;;;;;;6231669;28;20045;-79
2022/04/19 11:56:38;;;;;;;2.10;1.08;;;29.70;23.40;;;;;;6227777;28;20150;-79
2022/04/19 11:59:42;;;;;;;3.35;1.25;;;29.50;23.30;;;;;;6231482;28;20050;-77
2022/04/19 12:02:44;;;;;;;3.83;1.33;;;29.50;23.30;;;;;;6230983;28;20105;-78
2022/04/19 12:05:46;;;;;;;1.80;0.93;;;29.40;23.50;;;;;;6231911;28;20744;-78
2022/04/19 12:08:51;;;;;;;3.22;1.60;;;29.40;23.60;;;;;;6233587;28;20132;-78
2022/04/19 12:11:54;;;;;;;2.78;1.20;;;29.30;24.00;;;;;;6232386;28;20045;-78
2022/04/19 12:14:56;;;;;;;3.45;0.95;;;29.20;23.00;;;;;;6231034;28;20056;-78
2022/04/19 12:17:57;;;;;;;2.30;0.98;;;28.80;23.60;;;;;;6230912;28;20060;-78
2022/04/19 12:21:00;;;;;;;2.00;1.05;;;29.00;23.90;;;;;;6232145;28;20324;-80
2022/04/19 12:24:03;;;;;;;2.05;1.30;;;29.10;23.40;;;;;;6232039;28;20062;-78
2022/04/19 12:27:07;;;;;;;1.83;0.95;;;29.00;23.10;;;;;;6237742;28;20469;-77
2022/04/19 12:30:12;;;;;;;1.73;1.08;;;28.80;22.90;;;;;;6244523;23;20046;-83
2022/04/19 12:33:15;;;;;;;2.30;1.20;;;27.90;23.30;;;;;;6201776;28;20061;-84
2022/04/19 12:36:16;;;;;;;2.53;0.80;;;27.40;24.30;;;;;;6213941;28;20042;-84
2022/04/19 12:39:23;;;;;;;1.80;1.05;;;27.60;24.20;;;;;;6226199;28;20053;-84
2022/04/19 12:42:25;;;;;;;3.13;1.10;;;28.00;23.60;;;;;;6228153;28;20050;-82
2022/04/19 12:45:32;;;;;;;1.70;0.80;;;27.60;23.50;;;;;;6228203;28;20042;-82
2022/04/19 12:48:33;;;;;;;2.63;1.25;;;27.50;23.60;;;;;;6228496;28;20495;-82
2022/04/19 12:51:37;;;;;;;2.05;1.30;;;27.70;23.30;;;;;;6228011;28;20495;-82
2022/04/19 12:54:41;;;;;;;2.63;0.95;;;27.80;23.40;;;;;;6223597;28;20049;-82
2022/04/19 13:12:19;;;;;;;4.95;1.00;;;28.50;22.10;;;;;;6226298;28;20054;-82
2022/04/19 13:15:22;;;;;;;1.92;0.93;;;28.70;22.00;;;;;;6229674;28;20049;-81
2022/04/19 13:18:25;;;;;;;1.55;0.80;;;28.90;21.70;;;;;;6230407;28;20108;-81
2022/04/19 13:21:27;;;;;;;2.78;1.25;;;29.00;21.10;;;;;;6233216;28;20052;-81
2022/04/19 13:24:28;;;;;;;2.35;1.40;;;28.50;21.30;;;;;;6233176;28;20148;-81
2022/04/19 13:27:35;;;;;;;3.22;1.73;;;27.40;22.10;;;;;;6234566;28;20074;-81
2022/04/19 13:30:39;;;;;;;4.03;2.30;;;26.40;23.20;;;;;;6236824;28;20068;-83
2022/04/19 13:33:41;;;;;;;2.53;1.25;;;25.60;23.40;;;;;;6234732;28;20053;-81
2022/04/19 13:36:44;;;;;;;2.47;1.52;;;25.30;23.90;;;;;;6228424;28;20042;-82
2022/04/19 13:39:45;;;;;;;5.03;2.13;;;25.20;24.30;;;;;;6207160;28;20046;-81
2022/04/19 13:42:49;;;;;;;3.97;1.73;;;25.30;24.90;;;;;;6208569;28;20070;-82
2022/04/19 13:45:50;;;;;;;3.85;1.63;;;25.50;24.80;;;;;;6206833;28;20044;-81
2022/04/19 13:48:54;;;;;;;5.00;1.83;;;26.10;24.60;;;;;;6204401;28;20121;-82
2022/04/19 13:51:58;;;;;;;3.88;1.42;;;26.50;24.20;;;;;;6204508;28;20050;-81
2022/04/19 13:55:00;;;;;;;4.63;1.85;;;26.90;23.90;;;;;;6205730;28;20120;-80
2022/04/19 13:58:03;;;;;;;4.28;2.03;;;26.90;23.70;;;;;;6199619;28;20416;-81
2022/04/19 14:01:05;;;;;;;5.40;2.47;;;26.70;23.80;;;;;;6202377;28;20046;-82
2022/04/19 14:04:07;;;;;;;4.65;2.35;;;26.30;23.70;;;;;;6204993;28;20078;-81
2022/04/19 14:07:09;;;;;;;4.80;2.30;;;25.60;23.60;;;;;;6215827;28;20049;-81
2022/04/19 14:10:11;;;;;;;6.13;2.15;;;25.30;23.80;;;;;;6227774;28;20101;-81
2022/04/19 14:13:14;;;;;;;5.93;2.33;;;25.10;24.50;;;;;;6229549;28;20073;-82
2022/04/19 14:16:17;;;;;;;5.82;2.33;;;25.40;24.70;;;;;;6206942;28;20054;-83
2022/04/19 14:19:19;;;;;;;3.80;2.20;;;25.90;24.50;;;;;;6203224;28;20077;-81
2022/04/19 14:22:21;;;;;;;4.50;1.75;;;26.30;23.40;;;;;;6206399;28;20050;-83
2022/04/19 14:25:23;;;;;;;2.88;1.92;;;26.20;23.40;;;;;;6205831;28;20046;-83
2022/04/19 14:33:15;;;;;;;2.92;1.55;;;26.20;23.50;;;;;;6204989;28;20508;-82
2022/04/19 14:35:08;;;;;;;2.25;1.63;;;26.10;23.50;;;;;;6209867;28;20128;-84
2022/04/19 14:38:09;;;;;;;2.83;1.45;;;26.40;23.80;;;;;;6225315;28;20056;-84
2022/04/19 14:41:11;;;;;;;2.15;1.38;;;26.60;23.80;;;;;;6228628;28;20117;-84
2022/04/19 14:44:15;;;;;;;3.38;1.77;;;26.10;23.40;;;;;;6229655;28;20053;-85
2022/04/19 14:47:16;;;;;;;4.05;2.35;;;25.50;23.50;;;;;;6228264;28;20045;-84
2022/04/19 14:50:18;;;;;;;5.80;2.08;;;25.10;24.60;;;;;;6225799;28;20060;-85
2022/04/19 14:53:19;;;;;;;3.30;1.60;;;25.30;25.00;;;;;;6226135;28;20037;-85
2022/04/19 14:56:21;;;;;;;2.78;1.55;;;25.70;24.70;;;;;;6224944;28;20052;-85
2022/04/19 14:59:24;;;;;;;4.32;1.08;;;26.20;24.60;;;;;;6177950;28;20034;-85
2022/04/19 15:02:26;;;;;;;2.58;1.25;;;26.30;23.80;;;;;;6177010;28;20058;-84
2022/04/19 15:05:29;;;;;;;2.95;1.42;;;25.70;24.00;;;;;;6190088;28;20571;-85
2022/04/19 15:08:30;;;;;;;9.60;2.50;;;25.50;24.60;;;;;;6218292;28;20458;-84
2022/04/19 15:11:33;;;;;;;13.80;9.10;;;25.70;24.60;;;;;;6225372;28;20054;-85
2022/04/19 15:14:38;;;;;;;5.75;1.55;;;25.90;24.50;;;;;;6225939;28;20050;-82
2022/04/19 15:17:40;;;;;;;3.97;1.20;;;26.10;24.00;;;;;;6225298;28;20045;-82
2022/04/19 15:20:42;;;;;;;1.70;1.27;;;26.10;24.60;;;;;;6224497;28;20496;-83
2022/04/19 15:23:43;;;;;;;4.93;2.85;;;25.70;24.50;;;;;;6227205;28;20052;-84
2022/04/19 15:26:47;;;;;;;4.75;1.88;;;25.60;24.80;;;;;;6225114;28;20156;-84
2022/04/19 15:29:50;;;;;;;2.60;1.77;;;25.40;25.00;;;;;;6225698;28;20091;-84
2022/04/19 15:32:51;;;;;;;15.65;7.85;;;25.00;25.70;;;;;;6225773;28;20422;-83
2022/04/19 15:35:53;;;;;;;4.32;2.28;;;24.60;26.60;;;;;;6218825;28;20057;-84
2022/04/19 15:38:55;;;;;;;5.30;1.58;;;24.60;26.30;;;;;;6213140;28;20131;-83
2022/04/19 15:41:57;;;;;;;2.70;1.45;;;24.60;26.60;;;;;;6204288;28;20042;-82
2022/04/19 15:45:00;;;;;;;4.82;1.83;;;24.60;26.70;;;;;;6201474;28;20051;-84
2022/04/19 15:48:02;;;;;;;5.18;1.27;;;24.70;26.70;;;;;;6201006;28;20140;-84
2022/04/19 15:51:04;;;;;;;2.85;1.40;;;24.80;26.80;;;;;;6200967;28;20054;-84
2022/04/19 15:54:08;;;;;;;7.80;2.45;;;24.90;26.70;;;;;;6202527;28;20052;-84
2022/04/19 15:57:10;;;;;;;5.78;2.05;;;24.70;27.10;;;;;;6199806;28;20042;-84
2022/04/19 16:00:24;;;;;;;3.40;2.08;;;24.40;26.70;;;;;;6188508;28;20522;-85
2022/04/19 16:03:26;;;;;;;5.28;2.72;;;24.10;27.00;;;;;;6199498;28;20058;-84
2022/04/19 16:06:28;;;;;;;3.50;2.05;;;23.90;27.60;;;;;;6207555;28;20107;-84
2022/04/19 16:09:29;;;;;;;2.75;1.63;;;23.70;27.40;;;;;;6222999;28;20038;-83
2022/04/19 16:12:31;;;;;;;2.33;1.42;;;23.50;27.70;;;;;;6231574;28;20058;-84
2022/04/19 16:15:34;;;;;;;3.28;1.95;;;23.30;27.70;;;;;;6226503;28;20054;-84
2022/04/19 16:25:15;;;;;;;3.70;1.90;;;22.20;29.40;;;;;;6199500;28;20046;-84
2022/04/19 16:28:16;;;;;;;3.35;1.63;;;22.00;29.40;;;;;;6199001;28;20514;-83
2022/04/19 16:31:20;;;;;;;3.70;1.95;;;21.80;29.60;;;;;;6198992;28;20061;-83
2022/04/19 16:34:22;;;;;;;2.88;1.58;;;21.60;29.60;;;;;;6199757;28;20046;-83
2022/04/19 16:37:24;;;;;;;2.47;1.42;;;21.30;33.90;;;;;;6211661;28;20125;-84
2022/04/19 16:40:26;;;;;;;2.50;1.35;;;21.20;32.50;;;;;;6223833;28;20046;-83
2022/04/19 16:43:27;;;;;;;3.20;1.60;;;21.20;32.50;;;;;;6204255;28;20051;-84
2022/04/19 16:46:30;;;;;;;3.45;2.35;;;21.10;32.30;;;;;;6181646;28;20128;-84
2022/04/19 16:49:34;;;;;;;2.45;1.30;;;21.00;31.50;;;;;;6204398;28;20070;-83
2022/04/19 16:52:35;;;;;;;4.50;1.52;;;20.90;31.80;;;;;;6204752;28;20058;-83
2022/04/19 16:55:39;;;;;;;2.85;1.90;;;20.60;31.10;;;;;;6203191;28;20050;-83
2022/04/19 16:58:42;;;;;;;2.78;1.42;;;20.50;31.10;;;;;;6216782;28;20049;-84
2022/04/19 17:01:45;;;;;;;4.53;1.48;;;20.40;31.60;;;;;;6183453;28;20508;-84